Brisbane International Airport
YBBN : now visible

Airfield :











YOU CAN JOIN US ON...

 
LOGIN :

Register | Disclaimer

   EN    FR    IT 

 









Legend :    VFR   Marginal VFR   IFR   Intensive IFR   Very Intensive IFR
Visi :
Ceiling :
>= 8 km
>= 3000ft
5 to 8 km
1000 to 3000 ft
1500m to 5 km
500 to 1000 ft
800 to 1500m
200 to 500 ft
< 800m
< 200 ft
Symbols :   Thunderstorms  Fog  Heavy snow  Heavy precipitations  Wind > 20 kt







- Airport Elevation : 13 ft
- IATA code : BNE


YBBN - Brisbane International

CURRENT METAR :
  • 201100Z 13006KT 9999 SCT020 26/23 Q1007

EXPIRED METARs :
  • 201030Z 12007KT 9999 SCT020 26/23 Q1007 FM1200 13007KT 9999 SCT018 TEMPO 1130/1330 9999 NSW BKN012
  • 201000Z 11007KT 9999 BKN018 26/22 Q1007 FM1200 13007KT 9999 SCT018 TEMPO 1100/1300 9999 NSW BKN012
  • 200930Z 11006KT 9999 FEW018 26/22 Q1006 FM1000 13008KT 9999 SCT018 TEMPO 1100/1230 9999 NSW BKN012
  • 200900Z 11006KT 9999 FEW018 26/22 Q1006 FM0930 13008KT 9999 SCT018 TEMPO 1100/1200 9999 NSW BKN012
  • 200830Z 11007KT 9999 FEW018 27/22 Q1006 FM0900 13008KT 9999 SCT018 TEMPO 1100/1130 9999 NSW BKN012

TAF AMD TAF YBBN
Valid from the 20 at 06:00 until the 21 at 12:00 UTC


200509Z 2006/2112 10014KT CAVOK
FM200900 13008KT 9999 SCT018
FM201100 16008KT 9999 SCT010 BKN020
FM201500 20006KT 9999 SCT012 BKN020
FM202200 15014KT 9999 -SHRA SCT020 SCT035
FM210200 14018KT 9999 SCT035
FM210800 16015KT 9999 FEW018
TEMPO 2011/2022 9999 NSW BKN012
YBBB FIR / Oceania



MET'MAP, your aeronautical weather chart ! - Copyright ORBIFLY December 2007 - Disclaimer

ORBIFLY MET'MAP TEAM :

Programming & Development : Alexandra Zaïnal
Concept & Development : Baudouin d'Aumeries
Co-Development & Prog : Marc-Olivier Méhu
Technical & hardware support : Manuel Goepfert

Contact : metmap@orbifly.com




SOURCES & CREDITS :

   NOAA       Earth
Advisory